Portada
METAR-TAF:

METAR-TAF

Aeropuertos :

Tabarka, Túnez

latitud: 36-57N, longitud: 008-45E, altitud: 20 m

Observación

El informe se hizo hace 1 hora y 28 minutos, a las 07:00 UTC
Viento 5 kt del norte-noreste
Temperatura 14°C
Humedad 88%
Presión 1008 hPa
Visibilidad 10 km o más
Nubes dispersas a una altura de 2000 ft
Nubes dispersas a una altura de 3000 ft

METAR: DTKA 160700Z 03005KT 9999 SCT020 SCT030 14/12 Q1008 NOSIG

Hora: 09:28 (08:28 UTC)

Pronóstico

El informe se hizo hace 2 horas y 28 minutos, a las 06:00 UTC
Pronóstico válido del 16 a las 07 UTC al 16 a las 16 UTC
Viento 5 kt del este
Visibilidad 10 km o más
Nubes dispersas a una altura de 2000 ft
Probabilidad 40% :
Temporalmente
del 16 a las 09 UTC al 16 a las 16 UTC
lluvia

TAF: DTKA 160600Z 1607/1616 08005KT 9999 SCT020 PROB40 TEMPO 1609/1616 RA

Observaciones y pronósticos meteorológicos de más de 4000 aeropuertos (mensajes METAR y TAF).

Los puntos amarillos y rojos representan las estaciones disponibles.

Ponga el ratón en el punto deseado para ver el nombre de la estación.

Haga clic para ver las observaciones y los pronósticos meteorológicos.

Para cambiar el mapa : haga clic en los botones verdes con una cruz de color negro para hacer un zoom, en el botón verde con un guión para alejar o en las flechas verdes para mapas adyacentes.


METAR-TAF: